Time,TemperatureF,DewpointF,PressureIn,WindDirection,WindDirectionDegrees,WindSpeedMPH,WindSpeedGustMPH,Humidity,HourlyPrecipIn,Conditions,Clouds,dailyrainin,SoftwareType,DateUTC
2013-07-13 00:12:00,73.9,73.0,30.00,NW,307,0.0,1.0,97,0.00,,,0.00,weatherlink.com 1.10,2013-07-13 04:12:00,
2013-07-13 00:27:00,73.7,73.0,30.00,NNW,330,0.0,1.0,97,0.00,,,0.00,weatherlink.com 1.10,2013-07-13 04:27:00,
2013-07-13 00:42:00,73.6,73.0,30.00,NW,307,0.0,1.0,97,0.00,,,0.00,weatherlink.com 1.10,2013-07-13 04:42:00,
2013-07-13 00:57:00,73.6,73.0,30.01,NW,307,0.0,1.0,98,0.00,,,0.00,weatherlink.com 1.10,2013-07-13 04:57:00,
2013-07-13 01:12:00,73.6,73.0,30.01,NW,305,0.0,1.0,98,0.00,,,0.00,weatherlink.com 1.10,2013-07-13 05:12:00,
2013-07-13 01:27:00,73.6,73.0,30.02,NW,304,0.0,0.0,98,0.00,,,0.00,weatherlink.com 1.10,2013-07-13 05:27:00,
2013-07-13 01:42:00,73.6,73.0,30.01,NNW,343,0.0,1.0,98,0.00,,,0.00,weatherlink.com 1.10,2013-07-13 05:42:00,
2013-07-13 01:57:00,73.5,73.0,30.00,NW,319,0.0,1.0,98,0.00,,,0.00,weatherlink.com 1.10,2013-07-13 05:57:00,
2013-07-13 02:12:00,73.3,73.0,30.01,NW,307,0.0,1.0,98,0.00,,,0.00,weatherlink.com 1.10,2013-07-13 06:12:00,
2013-07-13 02:27:00,73.3,73.0,30.01,NW,316,0.0,1.0,98,0.00,,,0.00,weatherlink.com 1.10,2013-07-13 06:27:00,
2013-07-13 02:42:00,73.3,73.0,30.00,NW,316,0.0,1.0,98,0.00,,,0.00,weatherlink.com 1.10,2013-07-13 06:42:00,
2013-07-13 02:57:00,73.4,73.0,30.00,NW,319,0.0,1.0,98,0.00,,,0.00,weatherlink.com 1.10,2013-07-13 06:57:00,
2013-07-13 03:12:00,73.5,73.0,30.01,NW,326,0.0,1.0,98,0.00,,,0.00,weatherlink.com 1.10,2013-07-13 07:12:00,
2013-07-13 03:27:00,73.2,73.0,30.01,NW,325,0.0,1.0,98,0.00,,,0.00,weatherlink.com 1.10,2013-07-13 07:27:00,
2013-07-13 03:42:00,73.7,73.0,30.01,NNE,18,0.0,1.0,99,0.00,,,0.00,weatherlink.com 1.10,2013-07-13 07:42:00,
2013-07-13 03:57:00,76.8,77.0,30.01,East,84,7.0,8.0,99,0.00,,,0.00,weatherlink.com 1.10,2013-07-13 07:57:00,
2013-07-13 04:12:00,77.0,76.0,30.01,East,90,5.0,8.0,98,0.00,,,0.00,weatherlink.com 1.10,2013-07-13 08:12:00,
2013-07-13 04:27:00,77.2,76.0,30.01,East,98,6.0,6.0,97,0.00,,,0.00,weatherlink.com 1.10,2013-07-13 08:27:00,
2013-07-13 04:42:00,76.8,76.0,30.02,SE,128,8.0,14.0,97,0.02,,,0.02,weatherlink.com 1.10,2013-07-13 08:42:00,
2013-07-13 04:57:00,75.5,74.0,30.02,SE,131,7.0,9.0,96,0.02,,,0.02,weatherlink.com 1.10,2013-07-13 08:57:00,
2013-07-13 05:12:00,75.6,74.0,30.03,ESE,110,8.0,10.0,96,0.02,,,0.02,weatherlink.com 1.10,2013-07-13 09:12:00,
2013-07-13 05:27:00,76.6,76.0,30.03,SSE,155,8.0,10.0,97,0.03,,,0.03,weatherlink.com 1.10,2013-07-13 09:27:00,
2013-07-13 05:43:00,76.4,75.0,30.04,South,177,7.0,9.0,96,0.01,,,0.03,weatherlink.com 1.10,2013-07-13 09:43:00,
2013-07-13 05:58:00,76.3,75.0,30.04,South,181,3.0,8.0,96,0.01,,,0.03,weatherlink.com 1.10,2013-07-13 09:58:00,
2013-07-13 06:13:00,76.1,75.0,30.05,SE,134,3.0,7.0,95,0.01,,,0.03,weatherlink.com 1.10,2013-07-13 10:13:00,
2013-07-13 06:28:00,76.2,75.0,30.04,ESE,118,2.0,7.0,96,0.00,,,0.03,weatherlink.com 1.10,2013-07-13 10:28:00,
2013-07-13 06:43:00,76.1,75.0,30.05,SE,139,3.0,6.0,96,0.00,,,0.03,weatherlink.com 1.10,2013-07-13 10:43:00,
2013-07-13 06:58:00,76.5,75.0,30.05,SSE,152,8.0,9.0,96,0.00,,,0.03,weatherlink.com 1.10,2013-07-13 10:58:00,
2013-07-13 07:13:00,76.8,75.0,30.05,SSE,158,6.0,10.0,95,0.01,,,0.04,weatherlink.com 1.10,2013-07-13 11:13:00,
2013-07-13 07:28:00,76.8,75.0,30.06,SSW,193,7.0,9.0,95,0.01,,,0.04,weatherlink.com 1.10,2013-07-13 11:28:00,
2013-07-13 07:43:00,77.1,76.0,30.06,SSE,162,7.0,9.0,95,0.01,,,0.04,weatherlink.com 1.10,2013-07-13 11:43:00,
2013-07-13 07:58:00,77.5,76.0,30.07,SE,136,6.0,6.0,94,0.01,,,0.04,weatherlink.com 1.10,2013-07-13 11:58:00,
2013-07-13 08:13:00,77.4,76.0,30.08,ESE,117,5.0,8.0,94,0.00,,,0.04,weatherlink.com 1.10,2013-07-13 12:13:00,
2013-07-13 08:28:00,77.6,76.0,30.09,SSE,149,4.0,6.0,94,0.00,,,0.04,weatherlink.com 1.10,2013-07-13 12:28:00,
2013-07-13 08:43:00,77.4,76.0,30.10,SE,139,15.0,16.0,94,0.00,,,0.04,weatherlink.com 1.10,2013-07-13 12:43:00,
2013-07-13 08:58:00,78.0,76.0,30.10,South,170,12.0,15.0,92,0.00,,,0.04,weatherlink.com 1.10,2013-07-13 12:58:00,
2013-07-13 09:13:00,78.4,76.0,30.11,South,187,7.0,12.0,92,0.00,,,0.04,weatherlink.com 1.10,2013-07-13 13:13:00,
2013-07-13 09:28:00,78.6,76.0,30.11,SSW,197,6.0,10.0,91,0.00,,,0.04,weatherlink.com 1.10,2013-07-13 13:28:00,
2013-07-13 09:43:00,79.6,76.0,30.11,SE,146,5.0,7.0,89,0.00,,,0.04,weatherlink.com 1.10,2013-07-13 13:43:00,
2013-07-13 09:58:00,80.4,77.0,30.11,SE,128,3.0,5.0,89,0.00,,,0.04,weatherlink.com 1.10,2013-07-13 13:58:00,
2013-07-13 10:13:00,81.5,77.0,30.10,SE,141,8.0,16.0,87,0.00,,,0.04,weatherlink.com 1.10,2013-07-13 14:13:00,
2013-07-13 10:28:00,81.7,77.0,30.11,SSE,153,9.0,17.0,84,0.00,,,0.04,weatherlink.com 1.10,2013-07-13 14:28:00,
2013-07-13 10:43:00,82.0,77.0,30.11,SE,139,12.0,18.0,84,0.00,,,0.04,weatherlink.com 1.10,2013-07-13 14:43:00,
2013-07-13 10:58:00,82.3,76.0,30.11,SE,137,11.0,17.0,80,0.00,,,0.04,weatherlink.com 1.10,2013-07-13 14:58:00,
2013-07-13 11:13:00,82.5,75.0,30.12,SE,131,15.0,19.0,79,0.00,,,0.04,weatherlink.com 1.10,2013-07-13 15:13:00,
2013-07-13 11:29:00,82.8,75.0,30.12,SE,146,16.0,20.0,78,0.00,,,0.04,weatherlink.com 1.10,2013-07-13 15:29:00,
2013-07-13 11:43:00,83.2,76.0,30.13,SE,129,13.0,22.0,80,0.00,,,0.04,weatherlink.com 1.10,2013-07-13 15:43:00,
2013-07-13 11:58:00,83.0,75.0,30.13,SE,124,18.0,22.0,77,0.00,,,0.04,weatherlink.com 1.10,2013-07-13 15:58:00,
2013-07-13 12:13:00,83.4,75.0,30.13,SE,124,14.0,26.0,76,0.00,,,0.04,weatherlink.com 1.10,2013-07-13 16:13:00,
2013-07-13 12:28:00,83.6,77.0,30.12,SE,143,10.0,21.0,81,0.00,,,0.04,weatherlink.com 1.10,2013-07-13 16:28:00,
2013-07-13 12:43:00,83.4,75.0,30.13,SE,143,15.0,22.0,75,0.00,,,0.04,weatherlink.com 1.10,2013-07-13 16:43:00,
2013-07-13 12:58:00,83.5,76.0,30.14,SE,134,12.0,23.0,77,0.00,,,0.04,weatherlink.com 1.10,2013-07-13 16:58:00,
2013-07-13 13:13:00,83.6,75.0,30.14,SSE,156,16.0,25.0,74,0.00,,,0.04,weatherlink.com 1.10,2013-07-13 17:13:00,
2013-07-13 13:29:00,83.7,75.0,30.14,SE,131,17.0,20.0,75,0.00,,,0.04,weatherlink.com 1.10,2013-07-13 17:29:00,
2013-07-13 13:44:00,83.8,76.0,30.14,SE,124,13.0,19.0,76,0.00,,,0.04,weatherlink.com 1.10,2013-07-13 17:44:00,
2013-07-13 13:59:00,83.5,75.0,30.14,ESE,113,18.0,21.0,75,0.00,,,0.04,weatherlink.com 1.10,2013-07-13 17:59:00,
2013-07-13 14:14:00,83.7,75.0,30.13,SE,133,12.0,22.0,76,0.00,,,0.04,weatherlink.com 1.10,2013-07-13 18:14:00,
2013-07-13 14:29:00,83.4,76.0,30.13,ESE,113,14.0,21.0,79,0.00,,,0.04,weatherlink.com 1.10,2013-07-13 18:29:00,
2013-07-13 14:44:00,83.3,76.0,30.13,SE,131,16.0,25.0,78,0.00,,,0.04,weatherlink.com 1.10,2013-07-13 18:44:00,
2013-07-13 14:59:00,83.3,76.0,30.13,SE,132,16.0,23.0,79,0.00,,,0.04,weatherlink.com 1.10,2013-07-13 18:59:00,
2013-07-13 15:14:00,83.2,76.0,30.13,SE,127,18.0,21.0,78,0.00,,,0.04,weatherlink.com 1.10,2013-07-13 19:14:00,
2013-07-13 15:29:00,83.3,76.0,30.14,SE,124,20.0,23.0,79,0.00,,,0.04,weatherlink.com 1.10,2013-07-13 19:29:00,
2013-07-13 15:44:00,83.8,77.0,30.14,SE,139,15.0,23.0,79,0.00,,,0.04,weatherlink.com 1.10,2013-07-13 19:44:00,
2013-07-13 15:59:00,83.7,76.0,30.14,SE,145,17.0,21.0,78,0.00,,,0.04,weatherlink.com 1.10,2013-07-13 19:59:00,
2013-07-13 16:15:00,83.6,77.0,30.14,SE,128,14.0,21.0,79,0.00,,,0.04,weatherlink.com 1.10,2013-07-13 20:15:00,
2013-07-13 16:29:00,83.4,76.0,30.13,ESE,115,16.0,20.0,78,0.00,,,0.04,weatherlink.com 1.10,2013-07-13 20:29:00,
2013-07-13 16:44:00,83.2,76.0,30.13,SE,141,13.0,23.0,79,0.00,,,0.04,weatherlink.com 1.10,2013-07-13 20:44:00,
2013-07-13 16:59:00,83.2,76.0,30.13,ESE,120,18.0,23.0,79,0.00,,,0.04,weatherlink.com 1.10,2013-07-13 20:59:00,
2013-07-13 17:14:00,83.2,76.0,30.14,SE,134,13.0,22.0,80,0.00,,,0.04,weatherlink.com 1.10,2013-07-13 21:14:00,
2013-07-13 17:29:00,83.1,76.0,30.14,SE,136,14.0,20.0,80,0.00,,,0.04,weatherlink.com 1.10,2013-07-13 21:29:00,
2013-07-13 17:44:00,83.0,77.0,30.15,SE,134,14.0,20.0,81,0.00,,,0.04,weatherlink.com 1.10,2013-07-13 21:44:00,
2013-07-13 17:59:00,83.0,76.0,30.14,SSE,150,12.0,21.0,79,0.00,,,0.04,weatherlink.com 1.10,2013-07-13 21:59:00,
2013-07-13 18:14:00,83.1,77.0,30.15,SSE,153,13.0,20.0,81,0.00,,,0.04,weatherlink.com 1.10,2013-07-13 22:14:00,
2013-07-13 18:29:00,82.8,76.0,30.15,SE,145,16.0,20.0,80,0.00,,,0.04,weatherlink.com 1.10,2013-07-13 22:29:00,
2013-07-13 18:44:00,82.9,76.0,30.16,SSE,153,12.0,19.0,80,0.00,,,0.04,weatherlink.com 1.10,2013-07-13 22:44:00,
2013-07-13 18:59:00,82.7,76.0,30.16,SE,143,10.0,15.0,81,0.00,,,0.04,weatherlink.com 1.10,2013-07-13 22:59:00,
2013-07-13 19:14:00,81.8,76.0,30.17,SSW,207,17.0,25.0,81,0.00,,,0.04,weatherlink.com 1.10,2013-07-13 23:14:00,
2013-07-13 19:29:00,79.7,75.0,30.18,South,174,9.0,16.0,86,0.00,,,0.04,weatherlink.com 1.10,2013-07-13 23:29:00,
2013-07-13 19:44:00,79.2,75.0,30.18,SSE,150,11.0,16.0,87,0.00,,,0.04,weatherlink.com 1.10,2013-07-13 23:44:00,
2013-07-13 19:59:00,78.9,76.0,30.18,South,188,9.0,14.0,89,0.00,,,0.04,weatherlink.com 1.10,2013-07-13 23:59:00,
2013-07-13 20:14:00,78.8,75.0,30.17,SSE,155,7.0,11.0,89,0.00,,,0.04,weatherlink.com 1.10,2013-07-14 00:14:00,
2013-07-13 20:29:00,79.0,76.0,30.17,ESE,120,6.0,10.0,90,0.00,,,0.04,weatherlink.com 1.10,2013-07-14 00:29:00,
2013-07-13 20:44:00,79.3,76.0,30.17,SE,130,5.0,10.0,89,0.00,,,0.04,weatherlink.com 1.10,2013-07-14 00:44:00,
2013-07-13 20:59:00,79.6,77.0,30.18,ESE,115,9.0,11.0,90,0.00,,,0.04,weatherlink.com 1.10,2013-07-14 00:59:00,
2013-07-13 21:14:00,79.9,77.0,30.18,ESE,115,9.0,13.0,89,0.00,,,0.04,weatherlink.com 1.10,2013-07-14 01:14:00,
2013-07-13 21:29:00,79.8,76.0,30.18,East,96,10.0,11.0,88,0.00,,,0.04,weatherlink.com 1.10,2013-07-14 01:29:00,
2013-07-13 21:44:00,79.6,76.0,30.19,ESE,107,8.0,10.0,89,0.00,,,0.04,weatherlink.com 1.10,2013-07-14 01:44:00,
2013-07-13 21:59:00,79.6,76.0,30.20,East,83,10.0,11.0,89,0.00,,,0.04,weatherlink.com 1.10,2013-07-14 01:59:00,
2013-07-13 22:14:00,79.7,76.0,30.20,East,91,8.0,10.0,88,0.00,,,0.04,weatherlink.com 1.10,2013-07-14 02:14:00,
2013-07-13 22:29:00,79.5,76.0,30.20,East,100,9.0,9.0,90,0.00,,,0.04,weatherlink.com 1.10,2013-07-14 02:29:00,
2013-07-13 22:44:00,79.6,76.0,30.20,ESE,117,6.0,11.0,89,0.00,,,0.04,weatherlink.com 1.10,2013-07-14 02:44:00,
2013-07-13 22:59:00,79.6,76.0,30.21,SE,134,6.0,12.0,89,0.00,,,0.04,weatherlink.com 1.10,2013-07-14 02:59:00,
2013-07-13 23:14:00,79.2,76.0,30.21,East,98,6.0,9.0,89,0.00,,,0.04,weatherlink.com 1.10,2013-07-14 03:14:00,
2013-07-13 23:29:00,79.0,76.0,30.21,East,101,6.0,9.0,89,0.00,,,0.04,weatherlink.com 1.10,2013-07-14 03:29:00,
2013-07-13 23:44:00,78.9,76.0,30.21,SE,127,6.0,8.0,90,0.00,,,0.04,weatherlink.com 1.10,2013-07-14 03:44:00,
2013-07-13 23:59:00,79.2,76.0,30.21,East,101,8.0,10.0,89,0.00,,,0.04,weatherlink.com 1.10,2013-07-14 03:59:00,